Аэропорт: Омск-Центральный. Омск

ICAO: UNOO

METAR:
2018/05/20 23:00
UNOO 202300Z 27006MPS 9999 SCT033CB BKN033 18/06 Q1011 R25/CLRD60 NOSIG RMK QFE750
METAR:
2018/05/20 21:21
TAF UNOO 201950Z 2021/2121 20004G10MPS 6000 SCT033CB 
      TEMPO 2021/2024 23009G16MPS 2000 TSRA BKN010 BKN030CB 
      TEMPO 2104/2115 VRB18MPS 2000 TSRA SQ BKN007 BKN020CB